Time;durP1;ratioP1;P1;durP2;ratioP2;P2;SDS_P1;SDS_P2;PMS_P1;PMS_P2;Temp;Humidity;BMP_temperature;BMP_pressure;BME280_temperature;BME280_humidity;BME280_pressure;Samples;Min_cycle;Max_cycle;Signal;HPM_P1;HPM_P2
2023/10/12 00:01:57;;;;;;;10.27;4.78;;;17.60;55.90;;;;;;4995530;28;20050;-84
2023/10/12 00:04:28;;;;;;;12.15;5.30;;;17.60;55.50;;;;;;5031444;28;20088;-81
2023/10/12 00:06:54;;;;;;;12.63;5.00;;;17.70;55.40;;;;;;5039296;28;20127;-81
2023/10/12 00:09:24;;;;;;;9.55;4.85;;;17.70;54.10;;;;;;5074314;28;20056;-80
2023/10/12 00:12:07;;;;;;;9.40;4.53;;;17.90;54.10;;;;;;5074242;28;20078;-83
2023/10/12 00:14:34;;;;;;;8.77;5.15;;;17.90;54.40;;;;;;5074924;28;20024;-85
2023/10/12 00:17:00;;;;;;;14.98;5.47;;;17.90;54.40;;;;;;5073750;28;20036;-74
2023/10/12 00:19:26;;;;;;;12.27;5.03;;;18.00;53.90;;;;;;5073778;28;20028;-84
2023/10/12 00:22:08;;;;;;;9.82;5.07;;;18.00;54.10;;;;;;5073913;28;20400;-84
2023/10/12 00:24:34;;;;;;;11.35;5.03;;;18.00;53.20;;;;;;5074127;28;20017;-84
2023/10/12 00:26:59;;;;;;;9.68;5.22;;;18.10;53.30;;;;;;5074075;28;20090;-81
2023/10/12 00:29:25;;;;;;;11.13;4.78;;;18.10;52.10;;;;;;5074401;28;20060;-80
2023/10/12 00:31:52;;;;;;;10.00;5.03;;;18.30;51.20;;;;;;5074040;28;20114;-75
2023/10/12 00:34:23;;;;;;;11.60;5.35;;;18.50;50.60;;;;;;5074019;28;20017;-77
2023/10/12 00:36:52;;;;;;;8.00;4.72;;;18.60;50.10;;;;;;5074455;28;20020;-83
2023/10/12 00:39:20;;;;;;;10.90;4.43;;;18.70;49.60;;;;;;5074334;28;20112;-82
2023/10/12 00:41:46;;;;;;;7.35;4.28;;;18.70;49.70;;;;;;5074112;28;20020;-74
2023/10/12 00:44:19;;;;;;;12.98;5.30;;;18.80;50.40;;;;;;5075423;28;20094;-72
2023/10/12 00:46:58;;;;;;;12.07;4.57;;;18.70;49.10;;;;;;5058655;28;20028;-70
2023/10/12 00:49:27;;;;;;;9.18;5.00;;;18.80;48.30;;;;;;5061929;28;20054;-74
2023/10/12 00:52:08;;;;;;;13.20;4.88;;;18.80;47.50;;;;;;5056314;28;20029;-74
2023/10/12 00:57:05;;;;;;;9.57;4.40;;;19.00;46.40;;;;;;5073410;28;20024;-71
2023/10/12 00:59:31;;;;;;;11.20;4.70;;;19.10;45.90;;;;;;5073992;28;20021;-76
2023/10/12 01:02:02;;;;;;;10.93;4.40;;;19.20;45.80;;;;;;5073366;28;20033;-74
2023/10/12 01:04:30;;;;;;;15.27;4.75;;;19.30;45.30;;;;;;5036563;28;20431;-84
2023/10/12 01:07:00;;;;;;;13.23;4.78;;;19.40;44.60;;;;;;5055264;28;20029;-72
2023/10/12 01:09:32;;;;;;;9.00;4.07;;;19.40;44.60;;;;;;5053149;28;20029;-73
2023/10/12 01:12:00;;;;;;;11.45;4.57;;;19.50;44.70;;;;;;5053268;28;20017;-74
2023/10/12 01:14:27;;;;;;;10.05;4.50;;;19.50;44.70;;;;;;5052878;28;20036;-72
2023/10/12 01:19:22;;;;;;;11.98;4.55;;;19.60;44.40;;;;;;5053295;28;20481;-75
2023/10/12 01:22:12;;;;;;;12.00;4.93;;;19.60;44.40;;;;;;5034764;28;20143;-78
2023/10/12 01:24:43;;;;;;;10.55;4.60;;;19.60;44.30;;;;;;5053013;28;20021;-74
2023/10/12 01:27:12;;;;;;;12.55;4.38;;;19.60;43.50;;;;;;5052908;28;20163;-75
2023/10/12 01:29:38;;;;;;;9.48;4.28;;;19.60;43.90;;;;;;5053097;28;20013;-73
2023/10/12 01:34:44;;;;;;;9.63;4.70;;;19.70;43.60;;;;;;5053074;28;20017;-77
2023/10/12 01:37:20;;;;;;;12.70;4.82;;;19.70;43.80;;;;;;5052952;28;20531;-78
2023/10/12 01:39:55;;;;;;;8.07;4.45;;;19.70;43.80;;;;;;5053004;28;20044;-74
2023/10/12 01:42:21;;;;;;;10.40;4.95;;;19.60;44.10;;;;;;5052807;28;20473;-79
2023/10/12 01:44:47;;;;;;;7.90;4.80;;;19.60;44.20;;;;;;5052937;28;20057;-77
2023/10/12 01:47:13;;;;;;;13.13;4.68;;;19.60;44.30;;;;;;5052737;28;20163;-81
2023/10/12 01:49:39;;;;;;;9.27;4.70;;;19.60;43.90;;;;;;5035052;28;20112;-74
2023/10/12 01:52:08;;;;;;;15.15;5.25;;;19.70;43.50;;;;;;5052587;28;20473;-80
2023/10/12 01:54:39;;;;;;;6.93;3.95;;;19.70;43.40;;;;;;5052945;28;20078;-77
2023/10/12 01:57:05;;;;;;;8.85;4.82;;;19.70;43.30;;;;;;5035447;28;20495;-74
2023/10/12 01:59:31;;;;;;;13.43;5.10;;;19.70;43.60;;;;;;5054753;28;20108;-81
2023/10/12 02:02:13;;;;;;;8.55;4.50;;;19.60;43.40;;;;;;5056459;28;20025;-78
2023/10/12 02:04:40;;;;;;;10.50;4.70;;;19.60;43.60;;;;;;5056405;28;20420;-76
2023/10/12 02:07:10;;;;;;;8.32;4.78;;;19.50;44.40;;;;;;5052442;28;20021;-72
2023/10/12 02:09:36;;;;;;;8.80;4.55;;;19.50;45.20;;;;;;5055166;28;20521;-83
2023/10/12 02:12:11;;;;;;;8.38;4.90;;;19.40;46.60;;;;;;5056352;28;20108;-77
2023/10/12 02:14:39;;;;;;;14.48;5.07;;;19.10;47.90;;;;;;5056317;28;20017;-78
2023/10/12 02:17:05;;;;;;;9.27;4.38;;;18.90;47.70;;;;;;5056576;28;20026;-72
2023/10/12 02:19:38;;;;;;;9.43;4.38;;;18.80;48.30;;;;;;5055901;28;20470;-73
2023/10/12 02:22:04;;;;;;;12.85;4.95;;;18.70;48.30;;;;;;5056001;28;20025;-76
2023/10/12 02:24:29;;;;;;;10.27;5.15;;;18.80;48.50;;;;;;5054274;28;20032;-73
2023/10/12 02:26:55;;;;;;;8.85;4.10;;;18.80;48.60;;;;;;5055762;28;20039;-73
2023/10/12 02:29:21;;;;;;;7.38;4.63;;;18.80;47.90;;;;;;5055836;28;20035;-75
2023/10/12 02:34:41;;;;;;;16.48;5.20;;;18.90;47.80;;;;;;5055714;28;20359;-76
2023/10/12 02:37:16;;;;;;;11.27;4.90;;;19.00;47.70;;;;;;5055525;28;20083;-72
2023/10/12 02:39:42;;;;;;;12.77;4.80;;;19.00;47.60;;;;;;5055469;28;20470;-74
2023/10/12 02:57:32;;;;;;;12.23;5.07;;;19.60;47.50;;;;;;5055659;28;20036;-73
2023/10/12 03:00:13;;;;;;;13.07;5.25;;;19.50;47.50;;;;;;5053759;28;20052;-73
2023/10/12 03:02:44;;;;;;;13.23;4.82;;;19.60;47.80;;;;;;5060051;28;20047;-72
2023/10/12 03:05:13;;;;;;;12.25;5.63;;;19.70;48.00;;;;;;5075169;28;20024;-72
2023/10/12 03:07:39;;;;;;;14.02;5.30;;;19.70;48.00;;;;;;5075020;28;20040;-72
2023/10/12 03:10:07;;;;;;;12.32;5.15;;;19.70;48.20;;;;;;5056881;28;20021;-72
2023/10/12 03:12:35;;;;;;;14.70;5.07;;;19.70;48.10;;;;;;5075120;28;20021;-74
2023/10/12 03:15:12;;;;;;;17.65;5.72;;;19.80;47.90;;;;;;5074951;28;20101;-74
2023/10/12 03:17:45;;;;;;;10.10;4.88;;;19.90;47.70;;;;;;5075040;28;20079;-71
2023/10/12 03:20:23;;;;;;;15.07;5.13;;;19.90;47.70;;;;;;5074847;28;20027;-72
2023/10/12 03:22:59;;;;;;;12.73;5.35;;;19.90;47.60;;;;;;5074790;28;20028;-74
2023/10/12 03:25:43;;;;;;;13.45;5.03;;;19.90;47.80;;;;;;5074685;28;20023;-71
2023/10/12 03:28:16;;;;;;;11.10;5.20;;;19.90;48.10;;;;;;5074735;28;20040;-71
2023/10/12 03:30:53;;;;;;;14.68;5.53;;;19.90;47.90;;;;;;5074589;28;20518;-71
2023/10/12 03:33:19;;;;;;;11.07;4.68;;;19.80;47.70;;;;;;5056632;28;20025;-72
2023/10/12 03:38:33;;;;;;;9.73;5.18;;;19.90;47.00;;;;;;5071399;28;20043;-72
2023/10/12 03:43:47;;;;;;;13.02;5.00;;;19.90;47.10;;;;;;5074592;28;20043;-72
2023/10/12 03:46:27;;;;;;;11.43;5.28;;;19.90;46.90;;;;;;5074333;28;20052;-72
2023/10/12 03:51:41;;;;;;;19.65;5.85;;;20.00;46.50;;;;;;5074251;28;20059;-72
2023/10/12 03:54:26;;;;;;;11.82;5.15;;;20.00;46.60;;;;;;5055934;28;20021;-71
2023/10/12 03:56:53;;;;;;;16.02;4.95;;;19.90;46.60;;;;;;5074335;28;20111;-71
2023/10/12 03:59:27;;;;;;;13.30;5.05;;;19.90;46.70;;;;;;5073862;28;20029;-72
2023/10/12 04:01:54;;;;;;;9.75;4.68;;;19.90;46.40;;;;;;5073887;28;20021;-71
2023/10/12 04:04:21;;;;;;;11.23;5.32;;;19.90;46.40;;;;;;5054571;28;20489;-72
2023/10/12 04:07:04;;;;;;;12.63;5.28;;;19.90;46.60;;;;;;5053687;28;20029;-71
2023/10/12 04:09:42;;;;;;;14.15;5.47;;;19.80;46.30;;;;;;5035789;28;20033;-72
2023/10/12 04:12:19;;;;;;;7.63;4.53;;;19.90;46.40;;;;;;5053695;28;20380;-72
2023/10/12 04:25:14;;;;;;;9.77;5.00;;;19.80;46.40;;;;;;5053839;28;20025;-73
2023/10/12 04:27:57;;;;;;;8.55;5.03;;;19.80;46.50;;;;;;5053300;28;20441;-72
2023/10/12 04:30:42;;;;;;;11.50;5.28;;;19.70;46.60;;;;;;5053156;28;20028;-71
2023/10/12 04:33:17;;;;;;;10.20;5.35;;;19.70;46.10;;;;;;5053511;28;20059;-72
2023/10/12 04:36:09;;;;;;;16.08;5.82;;;19.70;46.00;;;;;;5035530;28;20013;-73
2023/10/12 04:38:56;;;;;;;10.27;5.72;;;19.70;46.00;;;;;;5053282;28;20048;-72
2023/10/12 04:43:53;;;;;;;9.05;5.05;;;19.70;46.00;;;;;;5053682;28;20024;-73
2023/10/12 04:48:49;;;;;;;12.10;5.88;;;19.70;45.20;;;;;;5054889;28;20036;-72
2023/10/12 04:51:21;;;;;;;12.30;4.88;;;19.70;45.10;;;;;;5059951;28;20020;-72
2023/10/12 04:53:57;;;;;;;15.85;5.70;;;19.70;44.90;;;;;;5053640;28;20021;-73
2023/10/12 04:56:25;;;;;;;9.13;5.38;;;19.80;44.50;;;;;;5053916;28;20078;-73
2023/10/12 04:58:57;;;;;;;9.68;5.75;;;19.80;45.00;;;;;;5052943;28;20021;-72
2023/10/12 05:02:06;;;;;;;14.63;5.10;;;19.80;45.20;;;;;;5053262;28;20163;-71
2023/10/12 05:04:35;;;;;;;9.27;4.88;;;19.70;45.80;;;;;;5071336;28;20105;-71
2023/10/12 05:09:48;;;;;;;10.77;5.68;;;19.40;47.90;;;;;;5052953;28;20116;-72
2023/10/12 05:12:17;;;;;;;12.68;6.07;;;19.20;48.40;;;;;;5052571;28;20128;-71
2023/10/12 05:14:43;;;;;;;12.30;5.53;;;19.20;48.00;;;;;;5052935;28;20029;-71
2023/10/12 05:17:09;;;;;;;13.13;5.97;;;19.10;47.70;;;;;;5052762;28;20025;-74
2023/10/12 05:19:35;;;;;;;12.32;5.45;;;19.10;48.40;;;;;;5052730;28;20029;-72
2023/10/12 05:22:01;;;;;;;10.68;5.35;;;19.00;48.70;;;;;;5052850;28;20033;-74
2023/10/12 05:24:27;;;;;;;9.07;5.13;;;19.00;48.10;;;;;;5052393;28;20405;-72
2023/10/12 05:27:39;;;;;;;11.27;5.53;;;18.90;49.00;;;;;;5054399;28;20039;-72
2023/10/12 05:29:38;;;;;;;;;;;18.80;49.00;;;;;;5042749;28;20041;-73
2023/10/12 05:32:18;;;;;;;10.95;4.95;;;18.80;49.40;;;;;;5052572;28;19959;-74
2023/10/12 05:34:46;;;;;;;9.65;4.43;;;18.70;49.50;;;;;;5055197;28;20024;-74
2023/10/12 05:39:46;;;;;;;11.63;5.70;;;18.60;50.30;;;;;;5056708;28;20412;-72
2023/10/12 05:42:14;;;;;;;8.75;5.28;;;18.60;49.70;;;;;;5056548;28;20033;-73
2023/10/12 05:44:42;;;;;;;10.07;5.45;;;18.60;49.20;;;;;;5056354;28;20021;-73
2023/10/12 05:47:13;;;;;;;10.18;5.30;;;18.70;49.30;;;;;;5056705;28;20046;-74
2023/10/12 05:49:42;;;;;;;11.43;5.93;;;18.80;48.80;;;;;;5038934;28;20108;-74
2023/10/12 05:52:09;;;;;;;12.02;5.72;;;18.80;48.90;;;;;;5056703;28;20024;-74
2023/10/12 05:54:38;;;;;;;9.70;5.25;;;18.90;48.70;;;;;;5039001;28;20083;-74
2023/10/12 05:57:16;;;;;;;8.55;5.30;;;18.90;48.30;;;;;;5038934;28;20032;-76
2023/10/12 05:59:42;;;;;;;10.45;5.30;;;19.00;47.80;;;;;;5056272;28;20021;-71
2023/10/12 06:02:09;;;;;;;13.05;6.43;;;19.10;47.80;;;;;;5056034;28;20139;-73
2023/10/12 06:04:35;;;;;;;11.70;6.10;;;19.20;47.20;;;;;;5056638;28;20043;-73
2023/10/12 06:07:00;;;;;;;12.55;5.82;;;19.30;47.20;;;;;;5055855;28;20440;-73
2023/10/12 06:09:35;;;;;;;21.13;6.28;;;19.30;47.30;;;;;;5056134;28;20032;-71
2023/10/12 06:12:06;;;;;;;13.75;5.60;;;19.50;48.10;;;;;;5056180;28;20104;-72
2023/10/12 06:14:32;;;;;;;11.13;5.85;;;19.60;46.90;;;;;;5056140;28;20052;-72
2023/10/12 06:17:02;;;;;;;8.82;5.18;;;19.60;46.90;;;;;;5056159;28;20068;-72
2023/10/12 06:19:34;;;;;;;11.90;6.00;;;19.70;46.20;;;;;;5055766;28;20036;-73
2023/10/12 06:22:13;;;;;;;12.93;6.38;;;19.70;46.00;;;;;;5055762;28;20377;-72
2023/10/12 06:24:44;;;;;;;15.38;5.85;;;19.80;45.80;;;;;;5055931;28;20477;-73
2023/10/12 06:29:49;;;;;;;11.80;5.45;;;19.90;45.80;;;;;;5056096;28;20087;-73
2023/10/12 06:32:19;;;;;;;11.70;5.63;;;19.90;45.80;;;;;;5055771;28;20032;-72
2023/10/12 06:43:52;;;;;;;9.95;5.65;;;20.10;45.50;;;;;;5058742;28;20531;-73
2023/10/12 06:45:46;;;;;;;11.57;5.65;;;20.10;45.40;;;;;;5054506;28;20029;-74
2023/10/12 06:51:03;;;;;;;18.90;6.05;;;20.10;45.20;;;;;;5055289;28;20021;-73
2023/10/12 06:53:35;;;;;;;10.80;5.40;;;20.10;45.00;;;;;;5054279;28;20055;-72
2023/10/12 07:01:51;;;;;;;12.57;5.75;;;20.30;44.90;;;;;;5055249;28;20086;-76
2023/10/12 07:04:53;;;;;;;14.75;6.63;;;20.40;44.90;;;;;;5054784;28;20049;-74
2023/10/12 07:07:10;;;;;;;16.23;6.93;;;20.50;44.90;;;;;;5054543;28;20068;-73
2023/10/12 07:09:46;;;;;;;10.20;6.20;;;20.60;44.90;;;;;;5055039;28;20024;-73
2023/10/12 07:12:19;;;;;;;16.67;6.20;;;20.60;44.40;;;;;;5055124;28;20025;-72
2023/10/12 07:14:53;;;;;;;10.90;5.60;;;20.60;44.30;;;;;;5054807;28;20025;-73
2023/10/12 07:17:18;;;;;;;13.02;5.90;;;20.60;44.60;;;;;;5054342;28;20465;-75
2023/10/12 07:19:49;;;;;;;9.75;5.70;;;20.70;44.40;;;;;;5054497;28;20028;-75
2023/10/12 07:22:15;;;;;;;14.00;6.53;;;20.70;44.80;;;;;;5054431;28;20028;-73
2023/10/12 07:24:54;;;;;;;13.50;6.15;;;20.70;44.40;;;;;;5054847;28;20017;-74
2023/10/12 07:27:23;;;;;;;12.02;5.80;;;20.70;44.60;;;;;;5054522;28;20083;-75
2023/10/12 07:30:02;;;;;;;11.60;6.07;;;20.70;44.50;;;;;;5054330;28;20035;-73
2023/10/12 07:32:37;;;;;;;13.70;6.05;;;20.70;44.60;;;;;;5054175;28;20064;-72
2023/10/12 07:35:31;;;;;;;11.63;5.88;;;20.70;44.90;;;;;;5054771;28;20033;-73
2023/10/12 07:37:51;;;;;;;11.40;5.80;;;20.70;44.70;;;;;;5053495;28;20021;-74
2023/10/12 07:40:22;;;;;;;9.15;5.63;;;20.70;45.20;;;;;;5054437;28;20061;-73
2023/10/12 07:42:48;;;;;;;13.43;5.72;;;20.80;44.90;;;;;;5054595;28;20021;-73
2023/10/12 07:45:19;;;;;;;9.50;5.38;;;20.80;45.00;;;;;;5036465;28;20032;-73
2023/10/12 07:47:46;;;;;;;13.80;5.22;;;20.80;44.70;;;;;;5054381;28;20028;-74
2023/10/12 07:50:23;;;;;;;9.45;5.35;;;20.90;44.90;;;;;;5036666;28;20029;-73
2023/10/12 07:52:48;;;;;;;13.63;6.03;;;21.00;45.20;;;;;;5053880;28;20049;-75
2023/10/12 07:55:18;;;;;;;9.10;5.65;;;21.00;45.30;;;;;;5054463;28;20020;-74
2023/10/12 07:57:45;;;;;;;13.40;5.93;;;21.00;45.70;;;;;;5053451;28;20017;-72
2023/10/12 08:10:47;;;;;;;12.50;5.72;;;20.80;46.00;;;;;;5054508;28;20027;-73
2023/10/12 08:24:01;;;;;;;10.10;5.85;;;21.00;46.00;;;;;;5053877;28;20056;-72
2023/10/12 08:32:03;;;;;;;13.52;5.28;;;21.10;46.00;;;;;;5053788;28;20411;-75
2023/10/12 08:34:41;;;;;;;10.75;5.50;;;21.10;45.90;;;;;;5053824;28;20068;-74
2023/10/12 08:42:55;;;;;;;7.50;5.10;;;21.10;46.00;;;;;;5054150;28;20032;-73
2023/10/12 08:45:23;;;;;;;11.73;5.15;;;21.20;45.60;;;;;;5053996;28;20028;-72
2023/10/12 08:47:50;;;;;;;13.07;5.93;;;21.20;45.20;;;;;;5055003;28;20037;-84
2023/10/12 08:52:50;;;;;;;9.45;5.63;;;21.20;45.60;;;;;;5045202;28;20047;-72
2023/10/12 08:55:19;;;;;;;8.43;4.88;;;21.30;45.70;;;;;;5062142;28;20071;-73
2023/10/12 08:58:03;;;;;;;13.60;6.18;;;21.40;45.40;;;;;;5053692;28;20028;-74
2023/10/12 09:05:51;;;;;;;9.52;5.38;;;21.50;45.10;;;;;;5068777;28;20017;-80
2023/10/12 09:10:51;;;;;;;11.48;5.85;;;21.60;45.00;;;;;;5064489;28;20029;-79
2023/10/12 09:13:18;;;;;;;12.70;5.30;;;21.60;44.50;;;;;;5057158;28;20021;-74
2023/10/12 09:15:50;;;;;;;11.93;4.88;;;21.60;44.70;;;;;;5055250;28;20025;-75
2023/10/12 09:18:17;;;;;;;11.38;5.07;;;21.70;44.60;;;;;;5037156;28;20024;-81
2023/10/12 09:23:31;;;;;;;8.03;5.00;;;21.80;43.90;;;;;;5054494;28;20032;-76
2023/10/12 09:31:13;;;;;;;10.15;5.20;;;21.60;43.90;;;;;;5053852;28;20049;-84
2023/10/12 09:33:45;;;;;;;10.18;5.05;;;21.60;44.60;;;;;;5054031;28;20465;-82
2023/10/12 09:36:11;;;;;;;10.20;5.75;;;21.60;44.50;;;;;;5053488;28;20527;-74
2023/10/12 09:38:38;;;;;;;12.43;5.32;;;21.70;44.30;;;;;;5053901;28;20381;-80
2023/10/12 09:41:08;;;;;;;8.57;5.28;;;21.70;44.30;;;;;;5053777;28;20028;-79
2023/10/12 09:43:39;;;;;;;11.75;5.07;;;21.70;44.40;;;;;;5053524;28;20503;-83
2023/10/12 09:46:06;;;;;;;9.60;4.97;;;21.80;44.30;;;;;;5053494;28;20041;-81
2023/10/12 09:48:38;;;;;;;15.18;5.53;;;21.80;43.70;;;;;;5053268;28;20037;-79
2023/10/12 09:51:10;;;;;;;10.38;5.80;;;21.80;44.20;;;;;;5053228;28;20466;-76
2023/10/12 09:53:44;;;;;;;9.90;5.38;;;21.80;44.10;;;;;;5053366;28;20044;-80
2023/10/12 09:56:15;;;;;;;15.02;5.30;;;21.80;44.20;;;;;;5053202;28;20577;-83
2023/10/12 09:58:51;;;;;;;8.75;5.47;;;21.90;43.90;;;;;;5052928;28;20036;-71
2023/10/12 10:01:25;;;;;;;8.15;5.05;;;22.00;43.90;;;;;;5052624;28;20486;-73
2023/10/12 10:03:52;;;;;;;11.45;5.28;;;22.20;43.90;;;;;;5052614;28;20075;-79
2023/10/12 10:06:37;;;;;;;11.07;4.93;;;22.30;43.70;;;;;;5053021;28;20123;-84
2023/10/12 10:09:18;;;;;;;15.87;5.50;;;22.40;43.70;;;;;;5053016;28;20045;-84
2023/10/12 10:11:45;;;;;;;13.15;5.88;;;22.50;42.70;;;;;;5041471;28;20280;-71
2023/10/12 10:14:17;;;;;;;13.80;5.35;;;22.50;42.80;;;;;;5038989;28;20033;-80
2023/10/12 10:16:46;;;;;;;10.27;5.18;;;22.50;42.20;;;;;;5052403;28;20109;-78
2023/10/12 10:19:13;;;;;;;11.60;5.25;;;22.60;42.30;;;;;;5035049;28;20025;-74
2023/10/12 10:22:06;;;;;;;13.45;5.63;;;22.60;41.70;;;;;;5056220;28;20373;-82
2023/10/12 10:24:43;;;;;;;11.80;5.22;;;22.70;41.90;;;;;;5033973;28;20120;-76
2023/10/12 10:27:11;;;;;;;16.23;5.32;;;22.80;42.30;;;;;;5056248;28;20024;-72
2023/10/12 10:29:41;;;;;;;11.30;5.28;;;22.90;41.60;;;;;;5056720;28;20057;-82
2023/10/12 10:32:07;;;;;;;12.80;5.18;;;22.90;41.60;;;;;;5057275;28;20028;-79
2023/10/12 10:34:34;;;;;;;11.90;5.80;;;23.00;41.60;;;;;;5059180;28;20039;-79
2023/10/12 10:37:00;;;;;;;11.10;4.70;;;23.20;40.40;;;;;;5056515;28;20450;-83
2023/10/12 10:39:29;;;;;;;12.50;5.22;;;23.30;41.10;;;;;;5038444;28;20027;-86
2023/10/12 10:42:00;;;;;;;15.70;4.78;;;23.30;39.50;;;;;;5038591;28;20079;-80
2023/10/12 10:44:26;;;;;;;11.88;4.85;;;23.30;39.80;;;;;;5056046;28;20013;-77
2023/10/12 10:47:06;;;;;;;14.02;5.18;;;23.40;39.10;;;;;;5055905;28;20025;-75
2023/10/12 10:49:32;;;;;;;14.77;5.40;;;23.40;38.90;;;;;;5055949;28;20175;-79
2023/10/12 10:54:33;;;;;;;10.73;4.50;;;23.70;38.30;;;;;;5057549;28;20450;-76
2023/10/12 10:57:02;;;;;;;14.75;5.35;;;24.20;37.70;;;;;;5055807;28;20024;-75
2023/10/12 10:59:30;;;;;;;12.63;4.18;;;24.30;36.30;;;;;;5055704;28;20036;-77
2023/10/12 11:01:59;;;;;;;18.17;4.80;;;24.10;35.80;;;;;;5055380;28;20036;-73
2023/10/12 11:07:04;;;;;;;9.00;4.50;;;24.30;35.10;;;;;;5055502;28;20027;-73
2023/10/12 11:12:20;;;;;;;11.15;4.28;;;25.00;33.70;;;;;;5055332;28;20373;-74
2023/10/12 11:14:58;;;;;;;12.77;5.07;;;25.10;33.00;;;;;;5055089;28;20047;-82
2023/10/12 11:17:26;;;;;;;12.20;4.32;;;25.20;32.80;;;;;;5055869;28;20025;-77
2023/10/12 11:19:52;;;;;;;10.98;4.65;;;25.30;32.20;;;;;;5055876;28;20025;-75
2023/10/12 11:22:19;;;;;;;10.50;4.28;;;25.50;31.40;;;;;;5055519;28;20021;-77
2023/10/12 11:24:49;;;;;;;15.10;4.63;;;25.30;32.30;;;;;;5037087;28;20025;-76
2023/10/12 11:27:32;;;;;;;12.65;4.65;;;25.10;33.30;;;;;;5055319;28;20036;-75
2023/10/12 11:30:00;;;;;;;11.85;4.13;;;25.10;33.00;;;;;;5056948;28;20060;-73
2023/10/12 11:32:28;;;;;;;11.65;4.47;;;25.40;31.90;;;;;;5074485;28;20476;-77
2023/10/12 11:34:59;;;;;;;13.07;3.95;;;25.30;30.80;;;;;;5074247;28;20040;-72
2023/10/12 11:37:28;;;;;;;10.80;4.10;;;25.20;31.30;;;;;;5056392;28;20070;-73
2023/10/12 11:39:57;;;;;;;9.07;4.03;;;25.20;30.70;;;;;;5074243;28;20012;-77
2023/10/12 11:42:23;;;;;;;10.80;4.45;;;25.00;30.90;;;;;;5056527;28;20024;-72
2023/10/12 11:44:51;;;;;;;7.63;3.45;;;24.80;31.10;;;;;;5056494;28;20032;-75
2023/10/12 11:47:25;;;;;;;12.38;3.95;;;24.90;30.80;;;;;;5056182;28;20353;-73
2023/10/12 11:49:58;;;;;;;11.20;4.32;;;25.20;30.80;;;;;;5058860;28;20076;-74
2023/10/12 11:52:32;;;;;;;11.25;4.25;;;25.20;29.80;;;;;;5055219;28;20052;-72
2023/10/12 11:55:06;;;;;;;13.20;3.90;;;25.20;30.00;;;;;;5074491;28;20024;-73
2023/10/12 11:57:41;;;;;;;13.32;4.03;;;25.10;30.60;;;;;;5056429;28;20021;-73
2023/10/12 12:00:21;;;;;;;9.02;4.38;;;25.10;30.20;;;;;;5072230;28;20032;-72
2023/10/12 12:02:57;;;;;;;8.52;3.97;;;25.00;30.90;;;;;;5062469;28;20086;-74
2023/10/12 12:05:29;;;;;;;9.52;3.90;;;25.40;30.00;;;;;;5049477;28;20489;-82
2023/10/12 12:07:56;;;;;;;9.70;3.90;;;25.80;30.00;;;;;;5056708;28;20028;-76
2023/10/12 12:13:12;;;;;;;13.98;4.25;;;26.20;29.50;;;;;;5052914;28;20107;-78
2023/10/12 12:15:43;;;;;;;10.20;3.40;;;26.30;28.40;;;;;;5022203;28;20040;-76
2023/10/12 12:18:19;;;;;;;12.05;3.55;;;26.50;25.80;;;;;;5055466;28;20033;-78
2023/10/12 12:20:52;;;;;;;12.30;3.67;;;26.50;25.50;;;;;;5036554;28;20044;-76
2023/10/12 12:23:20;;;;;;;13.43;3.58;;;26.30;24.90;;;;;;5054058;28;20021;-77
2023/10/12 12:25:46;;;;;;;9.65;3.60;;;26.30;24.50;;;;;;5041695;28;20024;-80
2023/10/12 12:28:16;;;;;;;10.43;3.42;;;26.60;23.80;;;;;;5061912;28;20108;-84
2023/10/12 12:30:55;;;;;;;9.95;3.38;;;26.90;23.80;;;;;;5054059;28;20013;-78
2023/10/12 12:33:20;;;;;;;8.35;3.10;;;26.90;23.50;;;;;;5053885;28;20017;-77
2023/10/12 12:35:47;;;;;;;11.60;3.15;;;26.50;23.90;;;;;;5053846;28;20017;-81
2023/10/12 12:40:59;;;;;;;14.80;3.60;;;26.30;25.90;;;;;;5054113;28;20036;-81
2023/10/12 12:43:24;;;;;;;11.25;3.90;;;26.00;25.70;;;;;;5052240;28;20508;-81
2023/10/12 12:45:52;;;;;;;7.15;3.67;;;25.80;26.60;;;;;;5053508;28;20021;-81
2023/10/12 12:48:19;;;;;;;12.93;3.67;;;25.70;27.50;;;;;;5053377;28;20096;-78
2023/10/12 12:50:45;;;;;;;12.15;3.67;;;25.50;27.10;;;;;;5053248;28;20424;-79
2023/10/12 12:53:11;;;;;;;9.80;3.72;;;25.60;27.00;;;;;;5053428;28;20032;-79
2023/10/12 12:55:38;;;;;;;14.30;4.28;;;25.60;27.20;;;;;;5053883;28;20017;-81
2023/10/12 12:58:14;;;;;;;8.27;3.47;;;25.80;27.40;;;;;;5058864;28;20029;-82
2023/10/12 13:00:40;;;;;;;6.10;3.33;;;26.10;27.20;;;;;;5049067;28;20017;-82
2023/10/12 13:03:05;;;;;;;9.32;3.58;;;26.00;25.50;;;;;;5075072;28;20075;-81
2023/10/12 13:05:32;;;;;;;7.07;3.65;;;26.00;26.20;;;;;;5079899;28;20029;-82
2023/10/12 13:08:00;;;;;;;12.85;3.70;;;25.90;25.70;;;;;;5084191;28;20040;-81
2023/10/12 13:10:26;;;;;;;7.70;4.10;;;25.80;26.40;;;;;;5074133;28;20027;-82
2023/10/12 13:12:52;;;;;;;9.43;3.72;;;25.50;26.90;;;;;;5073969;28;20024;-83
2023/10/12 13:15:18;;;;;;;14.85;3.95;;;25.20;27.20;;;;;;5073447;28;20044;-81
2023/10/12 13:17:44;;;;;;;7.70;3.50;;;24.80;28.60;;;;;;5074746;28;20039;-83
2023/10/12 13:20:22;;;;;;;11.50;3.78;;;24.80;28.20;;;;;;5077208;28;20099;-83
2023/10/12 13:22:49;;;;;;;9.73;3.58;;;24.70;29.10;;;;;;5074827;28;20028;-85
2023/10/12 13:25:17;;;;;;;14.45;4.22;;;24.70;29.50;;;;;;5074940;28;20027;-86
2023/10/12 13:27:49;;;;;;;8.32;3.80;;;24.60;30.00;;;;;;5040702;28;20060;-87
2023/10/12 13:30:15;;;;;;;11.32;3.97;;;24.60;29.50;;;;;;5074295;28;20020;-80
2023/10/12 13:32:47;;;;;;;9.38;3.83;;;24.50;30.00;;;;;;5074895;28;20384;-84
2023/10/12 13:35:31;;;;;;;11.30;3.28;;;24.50;30.00;;;;;;5056428;28;20468;-86
2023/10/12 13:38:02;;;;;;;10.85;3.72;;;24.40;29.10;;;;;;5073737;28;20024;-81
2023/10/12 13:40:29;;;;;;;7.70;3.60;;;24.20;29.70;;;;;;5073987;28;20169;-84
2023/10/12 13:43:01;;;;;;;8.90;3.60;;;24.10;29.60;;;;;;5073999;28;20491;-85
2023/10/12 13:45:28;;;;;;;12.45;3.78;;;24.00;29.30;;;;;;5073724;28;20562;-83
2023/10/12 13:47:54;;;;;;;13.77;3.95;;;23.90;30.90;;;;;;5073315;28;20472;-84
2023/10/12 13:50:20;;;;;;;10.82;4.05;;;23.90;30.50;;;;;;5073390;28;20080;-78
2023/10/12 13:52:45;;;;;;;10.27;3.30;;;24.00;30.40;;;;;;5074619;28;20040;-81
2023/10/12 13:55:14;;;;;;;8.40;3.35;;;24.20;29.40;;;;;;5076404;28;20063;-85
2023/10/12 13:57:57;;;;;;;11.93;3.63;;;24.30;29.70;;;;;;5059362;28;20476;-83
2023/10/12 14:00:27;;;;;;;11.23;3.88;;;24.40;29.30;;;;;;5059025;28;20029;-85
2023/10/12 14:02:56;;;;;;;11.50;3.85;;;24.80;28.90;;;;;;5076884;28;20493;-84
2023/10/12 14:05:28;;;;;;;7.18;3.30;;;25.10;28.00;;;;;;5059148;28;20028;-85
2023/10/12 14:08:01;;;;;;;13.00;3.72;;;25.40;27.50;;;;;;5076898;28;20384;-85
2023/10/12 14:10:27;;;;;;;11.55;3.80;;;25.50;27.50;;;;;;5077464;28;20040;-82
2023/10/12 14:12:53;;;;;;;10.80;3.63;;;25.30;27.70;;;;;;5077171;28;20025;-82
2023/10/12 14:15:27;;;;;;;8.93;3.67;;;25.20;28.10;;;;;;5076989;28;20025;-83
2023/10/12 14:17:59;;;;;;;7.15;3.63;;;25.10;28.10;;;;;;5076866;28;20034;-85
2023/10/12 14:20:28;;;;;;;10.60;3.40;;;25.10;27.90;;;;;;5058261;28;20020;-85
2023/10/12 14:23:05;;;;;;;8.57;3.88;;;24.80;29.10;;;;;;5057280;28;20334;-82
2023/10/12 14:25:38;;;;;;;12.48;6.38;;;24.90;29.10;;;;;;5061126;28;20020;-82
2023/10/12 14:28:05;;;;;;;7.57;3.88;;;24.90;29.10;;;;;;5058265;28;20442;-79
2023/10/12 14:30:36;;;;;;;10.48;4.05;;;24.80;29.70;;;;;;5039476;28;20135;-82
2023/10/12 14:33:03;;;;;;;10.18;4.07;;;24.80;28.70;;;;;;5057605;28;20442;-84
2023/10/12 14:35:40;;;;;;;9.38;3.90;;;24.90;29.50;;;;;;5058298;28;20029;-84
2023/10/12 14:38:08;;;;;;;9.63;3.53;;;24.90;29.40;;;;;;5057812;28;20029;-84
2023/10/12 14:40:35;;;;;;;10.27;3.92;;;24.90;29.50;;;;;;5057267;28;20125;-83
2023/10/12 14:43:11;;;;;;;12.00;4.38;;;25.00;28.90;;;;;;5057730;28;20485;-85
2023/10/12 14:46:02;;;;;;;14.57;3.95;;;25.10;29.80;;;;;;5039594;28;20131;-81
2023/10/12 14:48:28;;;;;;;9.52;3.92;;;25.30;28.50;;;;;;5059069;28;20104;-84
2023/10/12 14:51:29;;;;;;;9.52;4.10;;;25.10;28.30;;;;;;5041668;28;20025;-84
2023/10/12 14:53:56;;;;;;;8.73;3.75;;;25.10;28.20;;;;;;5059788;28;20039;-84
2023/10/12 14:56:29;;;;;;;11.18;4.00;;;25.20;28.50;;;;;;5040676;28;20112;-76
2023/10/12 14:58:56;;;;;;;11.05;4.05;;;25.20;28.90;;;;;;5038223;28;20028;-74
2023/10/12 15:01:28;;;;;;;10.38;3.40;;;25.20;28.60;;;;;;5039161;28;20021;-75
2023/10/12 15:03:55;;;;;;;19.67;4.15;;;25.10;28.50;;;;;;5054373;28;20040;-79
2023/10/12 15:06:21;;;;;;;11.95;3.50;;;25.10;28.50;;;;;;5059005;28;20059;-80
2023/10/12 15:08:48;;;;;;;9.93;3.78;;;25.00;29.00;;;;;;5059454;28;20039;-74
2023/10/12 15:11:14;;;;;;;6.07;3.25;;;24.90;28.90;;;;;;5059422;28;20067;-81
2023/10/12 15:13:41;;;;;;;11.93;3.97;;;24.80;27.40;;;;;;5059107;28;20222;-75
2023/10/12 15:16:16;;;;;;;8.23;3.95;;;24.60;27.90;;;;;;5058996;28;20116;-80
2023/10/12 15:18:44;;;;;;;5.68;3.20;;;24.40;28.40;;;;;;5059523;28;20020;-84